KINS

Creech AFB Airport

Indian Springs, Nevada, USA
METAR KINS 230758Z AUTO 00000KT 10SM CLR 16/01 A2984 RMK AO2 SLP066 T01630008 402690135 $
Observed Flight Rules
May-23 @ 07:58 UTC (48 minutes ago) Visual Flight Rules
Visibility Clouds
10 miles
  • Clear skies
Temperatures Readings
Current 16°C / 61°F
Dewpoint 1°C / 34°F
Humidity 36%
Altimeter 29.84" Hg
Pressure 1006.6 hPa
Elevation 955
METAR KINS 230758Z AUTO 00000KT 10SM CLR 16/01 A2984 RMK AO2 SLP066 T01630008 402690135 $
Observed Flight Rules
May-23 @ 07:58 UTC
(48 minutes ago)
VFR
Clouds
  • Clear skies
Temperature Dewpoint
16°C / 61°F 1°C / 34°F
Humidity Altimeter Pressure
36% 29.84" Hg 1006.6 hPa